sensor_id;sensor_type;location;lat;lon;timestamp;pressure;altitude;pressure_sealevel;temperature;humidity
3960;BME280;1994;48.640;8.894;2023-08-06T00:00:27;95438.81;;;16.46;84.86
3960;BME280;1994;48.640;8.894;2023-08-06T00:02:53;95439.56;;;16.46;84.25
3960;BME280;1994;48.640;8.894;2023-08-06T00:05:19;95437.47;;;16.48;83.85
3960;BME280;1994;48.640;8.894;2023-08-06T00:07:50;95436.69;;;16.48;84.10
3960;BME280;1994;48.640;8.894;2023-08-06T00:10:16;95441.13;;;16.47;84.01
3960;BME280;1994;48.640;8.894;2023-08-06T00:12:43;95442.78;;;16.43;83.75
3960;BME280;1994;48.640;8.894;2023-08-06T00:15:10;95438.03;;;16.27;83.34
3960;BME280;1994;48.640;8.894;2023-08-06T00:17:36;95439.38;;;16.06;84.14
3960;BME280;1994;48.640;8.894;2023-08-06T00:20:03;95441.50;;;15.85;85.28
3960;BME280;1994;48.640;8.894;2023-08-06T00:22:34;95452.72;;;15.67;86.24
3960;BME280;1994;48.640;8.894;2023-08-06T00:25:00;95445.28;;;15.56;86.83
3960;BME280;1994;48.640;8.894;2023-08-06T00:27:26;95447.09;;;15.37;88.94
3960;BME280;1994;48.640;8.894;2023-08-06T00:29:52;95447.31;;;15.40;89.33
3960;BME280;1994;48.640;8.894;2023-08-06T00:32:18;95434.63;;;15.29;90.08
3960;BME280;1994;48.640;8.894;2023-08-06T00:34:44;95435.41;;;15.34;90.56
3960;BME280;1994;48.640;8.894;2023-08-06T00:37:09;95427.44;;;15.21;91.50
3960;BME280;1994;48.640;8.894;2023-08-06T00:39:35;95428.88;;;15.32;90.46
3960;BME280;1994;48.640;8.894;2023-08-06T00:42:01;95420.16;;;15.18;91.04
3960;BME280;1994;48.640;8.894;2023-08-06T00:44:27;95409.81;;;15.08;91.18
3960;BME280;1994;48.640;8.894;2023-08-06T00:46:52;95408.59;;;15.00;91.22
3960;BME280;1994;48.640;8.894;2023-08-06T00:49:18;95405.13;;;15.10;90.60
3960;BME280;1994;48.640;8.894;2023-08-06T00:51:45;95404.34;;;15.09;90.54
3960;BME280;1994;48.640;8.894;2023-08-06T00:54:11;95398.91;;;15.06;90.64
3960;BME280;1994;48.640;8.894;2023-08-06T00:56:37;95389.63;;;14.95;91.50
3960;BME280;1994;48.640;8.894;2023-08-06T00:59:05;95388.13;;;14.89;91.94
3960;BME280;1994;48.640;8.894;2023-08-06T01:01:31;95396.69;;;14.71;92.60
3960;BME280;1994;48.640;8.894;2023-08-06T01:03:57;95387.75;;;14.77;92.46
3960;BME280;1994;48.640;8.894;2023-08-06T01:09:49;95398.78;;;14.69;92.63
3960;BME280;1994;48.640;8.894;2023-08-06T01:12:42;95394.34;;;14.69;92.32
3960;BME280;1994;48.640;8.894;2023-08-06T01:15:21;95388.34;;;14.69;91.69
3960;BME280;1994;48.640;8.894;2023-08-06T01:17:48;95387.34;;;14.65;91.13
3960;BME280;1994;48.640;8.894;2023-08-06T01:20:14;95377.03;;;14.55;90.70
3960;BME280;1994;48.640;8.894;2023-08-06T01:22:39;95380.66;;;14.54;90.69
3960;BME280;1994;48.640;8.894;2023-08-06T01:25:06;95378.66;;;14.46;90.71
3960;BME280;1994;48.640;8.894;2023-08-06T01:27:50;95370.25;;;14.54;90.02
3960;BME280;1994;48.640;8.894;2023-08-06T01:30:29;95380.34;;;14.60;90.10
3960;BME280;1994;48.640;8.894;2023-08-06T01:33:00;95377.69;;;14.65;89.55
3960;BME280;1994;48.640;8.894;2023-08-06T01:35:29;95380.53;;;14.69;89.38
3960;BME280;1994;48.640;8.894;2023-08-06T01:37:55;95379.47;;;14.70;89.35
3960;BME280;1994;48.640;8.894;2023-08-06T01:40:22;95378.97;;;14.68;89.24
3960;BME280;1994;48.640;8.894;2023-08-06T01:42:47;95378.72;;;14.69;89.13
3960;BME280;1994;48.640;8.894;2023-08-06T01:45:13;95379.16;;;14.76;89.04
3960;BME280;1994;48.640;8.894;2023-08-06T01:47:39;95379.50;;;14.65;89.21
3960;BME280;1994;48.640;8.894;2023-08-06T01:50:05;95396.91;;;14.74;88.39
3960;BME280;1994;48.640;8.894;2023-08-06T01:52:31;95377.28;;;14.82;88.22
3960;BME280;1994;48.640;8.894;2023-08-06T01:54:57;95380.38;;;14.84;88.10
3960;BME280;1994;48.640;8.894;2023-08-06T01:57:23;95376.38;;;14.68;88.49
3960;BME280;1994;48.640;8.894;2023-08-06T01:59:49;95371.16;;;14.68;88.52
3960;BME280;1994;48.640;8.894;2023-08-06T02:02:14;95373.22;;;14.71;88.38
3960;BME280;1994;48.640;8.894;2023-08-06T02:04:40;95368.06;;;14.66;87.90
3960;BME280;1994;48.640;8.894;2023-08-06T02:07:06;95356.00;;;14.70;87.42
3960;BME280;1994;48.640;8.894;2023-08-06T02:09:32;95355.06;;;14.61;88.31
3960;BME280;1994;48.640;8.894;2023-08-06T02:11:58;95361.94;;;14.52;88.81
3960;BME280;1994;48.640;8.894;2023-08-06T02:14:23;95348.28;;;14.36;89.06
3960;BME280;1994;48.640;8.894;2023-08-06T02:16:49;95347.81;;;14.29;89.91
3960;BME280;1994;48.640;8.894;2023-08-06T02:19:15;95347.03;;;14.29;90.10
3960;BME280;1994;48.640;8.894;2023-08-06T02:21:41;95347.09;;;14.24;90.80
3960;BME280;1994;48.640;8.894;2023-08-06T02:24:07;95343.69;;;14.23;91.20
3960;BME280;1994;48.640;8.894;2023-08-06T02:26:33;95334.59;;;14.21;91.26
3960;BME280;1994;48.640;8.894;2023-08-06T02:28:58;95318.97;;;14.21;91.84
3960;BME280;1994;48.640;8.894;2023-08-06T02:31:24;95327.09;;;14.19;92.15
3960;BME280;1994;48.640;8.894;2023-08-06T02:33:50;95319.97;;;14.25;92.73
3960;BME280;1994;48.640;8.894;2023-08-06T02:36:16;95320.47;;;14.27;92.80
3960;BME280;1994;48.640;8.894;2023-08-06T02:38:41;95321.53;;;14.26;92.98
3960;BME280;1994;48.640;8.894;2023-08-06T02:41:07;95314.78;;;14.25;93.53
3960;BME280;1994;48.640;8.894;2023-08-06T02:43:33;95313.75;;;14.21;93.87
3960;BME280;1994;48.640;8.894;2023-08-06T02:46:00;95316.38;;;14.16;94.23
3960;BME280;1994;48.640;8.894;2023-08-06T02:48:26;95317.97;;;14.17;94.27
3960;BME280;1994;48.640;8.894;2023-08-06T02:50:52;95315.34;;;14.17;94.22
3960;BME280;1994;48.640;8.894;2023-08-06T02:53:18;95303.34;;;14.21;94.26
3960;BME280;1994;48.640;8.894;2023-08-06T02:55:47;95312.75;;;14.17;93.76
3960;BME280;1994;48.640;8.894;2023-08-06T02:58:14;95314.34;;;14.13;94.20
3960;BME280;1994;48.640;8.894;2023-08-06T03:00:40;95310.94;;;14.12;94.42
3960;BME280;1994;48.640;8.894;2023-08-06T03:03:06;95303.44;;;14.11;93.92
3960;BME280;1994;48.640;8.894;2023-08-06T03:05:32;95303.38;;;14.16;93.64
3960;BME280;1994;48.640;8.894;2023-08-06T03:07:58;95300.47;;;14.22;93.10
3960;BME280;1994;48.640;8.894;2023-08-06T03:10:29;95298.13;;;14.21;93.29
3960;BME280;1994;48.640;8.894;2023-08-06T03:12:55;95287.81;;;14.11;93.82
3960;BME280;1994;48.640;8.894;2023-08-06T03:15:20;95285.75;;;14.08;94.11
3960;BME280;1994;48.640;8.894;2023-08-06T03:17:46;95283.09;;;14.13;93.69
3960;BME280;1994;48.640;8.894;2023-08-06T03:20:12;95274.84;;;14.06;93.59
3960;BME280;1994;48.640;8.894;2023-08-06T03:22:38;95279.03;;;14.02;94.31
3960;BME280;1994;48.640;8.894;2023-08-06T03:25:04;95276.38;;;14.07;93.70
3960;BME280;1994;48.640;8.894;2023-08-06T03:27:30;95282.53;;;14.16;93.62
3960;BME280;1994;48.640;8.894;2023-08-06T03:29:56;95284.91;;;14.12;93.24
3960;BME280;1994;48.640;8.894;2023-08-06T03:32:21;95284.63;;;14.14;93.63
3960;BME280;1994;48.640;8.894;2023-08-06T03:34:47;95275.53;;;14.11;93.44
3960;BME280;1994;48.640;8.894;2023-08-06T03:37:13;95283.59;;;14.15;93.30
3960;BME280;1994;48.640;8.894;2023-08-06T03:39:39;95273.59;;;14.27;92.84
3960;BME280;1994;48.640;8.894;2023-08-06T03:42:05;95275.13;;;14.33;92.34
3960;BME280;1994;48.640;8.894;2023-08-06T03:44:31;95277.41;;;14.34;92.47
3960;BME280;1994;48.640;8.894;2023-08-06T03:46:57;95280.19;;;14.43;92.88
3960;BME280;1994;48.640;8.894;2023-08-06T03:49:22;95282.75;;;14.48;92.18
3960;BME280;1994;48.640;8.894;2023-08-06T03:51:48;95278.09;;;14.45;92.71
3960;BME280;1994;48.640;8.894;2023-08-06T03:54:14;95277.03;;;14.46;92.79
3960;BME280;1994;48.640;8.894;2023-08-06T03:56:40;95273.78;;;14.35;93.38
3960;BME280;1994;48.640;8.894;2023-08-06T03:59:05;95276.88;;;14.37;93.74
3960;BME280;1994;48.640;8.894;2023-08-06T04:01:31;95283.84;;;14.42;93.90
3960;BME280;1994;48.640;8.894;2023-08-06T04:03:57;95281.78;;;14.44;93.96
3960;BME280;1994;48.640;8.894;2023-08-06T04:06:23;95286.94;;;14.49;94.50
3960;BME280;1994;48.640;8.894;2023-08-06T04:08:48;95292.84;;;14.54;94.47
3960;BME280;1994;48.640;8.894;2023-08-06T04:11:14;95285.25;;;14.58;94.09
3960;BME280;1994;48.640;8.894;2023-08-06T04:13:43;95286.25;;;14.62;93.61
3960;BME280;1994;48.640;8.894;2023-08-06T04:16:09;95299.28;;;14.62;93.73
3960;BME280;1994;48.640;8.894;2023-08-06T04:18:35;95298.28;;;14.58;93.71
3960;BME280;1994;48.640;8.894;2023-08-06T04:21:02;95293.06;;;14.58;93.93
3960;BME280;1994;48.640;8.894;2023-08-06T04:23:28;95301.22;;;14.75;93.32
3960;BME280;1994;48.640;8.894;2023-08-06T04:25:57;95309.59;;;14.72;93.19
3960;BME280;1994;48.640;8.894;2023-08-06T04:28:23;95304.94;;;14.69;93.19
3960;BME280;1994;48.640;8.894;2023-08-06T04:30:49;95305.50;;;14.66;92.79
3960;BME280;1994;48.640;8.894;2023-08-06T04:33:15;95301.25;;;14.70;92.16
3960;BME280;1994;48.640;8.894;2023-08-06T04:35:40;95300.72;;;14.73;91.71
3960;BME280;1994;48.640;8.894;2023-08-06T04:38:06;95302.38;;;14.64;91.22
3960;BME280;1994;48.640;8.894;2023-08-06T04:40:36;95305.56;;;14.61;90.82
3960;BME280;1994;48.640;8.894;2023-08-06T04:43:02;95301.94;;;14.57;90.59
3960;BME280;1994;48.640;8.894;2023-08-06T04:45:28;95306.72;;;14.50;91.17
3960;BME280;1994;48.640;8.894;2023-08-06T04:47:54;95310.09;;;14.50;91.11
3960;BME280;1994;48.640;8.894;2023-08-06T04:50:20;95308.25;;;14.51;91.05
3960;BME280;1994;48.640;8.894;2023-08-06T04:52:46;95304.53;;;14.57;91.18
3960;BME280;1994;48.640;8.894;2023-08-06T04:55:11;95308.00;;;14.52;91.76
3960;BME280;1994;48.640;8.894;2023-08-06T04:57:37;95307.66;;;14.59;91.38
3960;BME280;1994;48.640;8.894;2023-08-06T05:00:12;95301.63;;;14.63;91.78
3960;BME280;1994;48.640;8.894;2023-08-06T05:02:38;95305.03;;;14.59;91.79
3960;BME280;1994;48.640;8.894;2023-08-06T05:05:05;95304.38;;;14.72;91.07
3960;BME280;1994;48.640;8.894;2023-08-06T05:07:30;95309.59;;;14.72;90.33
3960;BME280;1994;48.640;8.894;2023-08-06T05:09:56;95311.19;;;14.68;91.41
3960;BME280;1994;48.640;8.894;2023-08-06T05:12:22;95310.09;;;14.74;90.83
3960;BME280;1994;48.640;8.894;2023-08-06T05:14:47;95303.16;;;14.88;90.15
3960;BME280;1994;48.640;8.894;2023-08-06T05:17:13;95302.03;;;14.94;90.29
3960;BME280;1994;48.640;8.894;2023-08-06T05:19:39;95308.16;;;14.84;90.09
3960;BME280;1994;48.640;8.894;2023-08-06T05:22:05;95303.91;;;14.88;90.77
3960;BME280;1994;48.640;8.894;2023-08-06T05:24:30;95307.25;;;14.70;90.78
3960;BME280;1994;48.640;8.894;2023-08-06T05:26:56;95301.22;;;14.75;91.07
3960;BME280;1994;48.640;8.894;2023-08-06T05:29:22;95311.72;;;14.88;90.14
3960;BME280;1994;48.640;8.894;2023-08-06T05:31:48;95310.47;;;14.86;90.46
3960;BME280;1994;48.640;8.894;2023-08-06T05:34:13;95319.63;;;14.83;91.08
3960;BME280;1994;48.640;8.894;2023-08-06T05:36:39;95327.09;;;14.90;91.77
3960;BME280;1994;48.640;8.894;2023-08-06T05:39:05;95325.69;;;14.79;92.16
3960;BME280;1994;48.640;8.894;2023-08-06T05:41:31;95324.13;;;14.78;91.98
3960;BME280;1994;48.640;8.894;2023-08-06T05:43:56;95325.78;;;14.92;92.24
3960;BME280;1994;48.640;8.894;2023-08-06T05:46:22;95327.69;;;14.87;91.60
3960;BME280;1994;48.640;8.894;2023-08-06T05:48:49;95327.75;;;14.82;92.06
3960;BME280;1994;48.640;8.894;2023-08-06T05:51:16;95331.91;;;14.83;92.06
3960;BME280;1994;48.640;8.894;2023-08-06T05:53:43;95331.94;;;14.78;92.99
3960;BME280;1994;48.640;8.894;2023-08-06T05:56:09;95334.56;;;14.78;93.42
3960;BME280;1994;48.640;8.894;2023-08-06T05:58:34;95336.66;;;14.76;93.79
3960;BME280;1994;48.640;8.894;2023-08-06T06:01:00;95326.22;;;14.76;94.02
3960;BME280;1994;48.640;8.894;2023-08-06T06:03:26;95329.88;;;14.75;94.06
3960;BME280;1994;48.640;8.894;2023-08-06T06:05:52;95327.34;;;14.70;94.79
3960;BME280;1994;48.640;8.894;2023-08-06T06:08:18;95330.09;;;14.78;94.46
3960;BME280;1994;48.640;8.894;2023-08-06T06:10:44;95330.84;;;14.84;95.17
3960;BME280;1994;48.640;8.894;2023-08-06T06:13:09;95330.41;;;14.77;95.90
3960;BME280;1994;48.640;8.894;2023-08-06T06:15:35;95326.78;;;14.73;96.15
3960;BME280;1994;48.640;8.894;2023-08-06T06:18:01;95325.94;;;14.54;97.74
3960;BME280;1994;48.640;8.894;2023-08-06T06:20:27;95326.13;;;14.62;97.15
3960;BME280;1994;48.640;8.894;2023-08-06T06:22:52;95336.22;;;14.69;96.26
3960;BME280;1994;48.640;8.894;2023-08-06T06:25:18;95342.22;;;14.93;96.19
3960;BME280;1994;48.640;8.894;2023-08-06T06:27:44;95338.72;;;14.79;95.29
3960;BME280;1994;48.640;8.894;2023-08-06T06:30:10;95347.25;;;14.84;96.41
3960;BME280;1994;48.640;8.894;2023-08-06T06:32:37;95348.66;;;14.77;96.30
3960;BME280;1994;48.640;8.894;2023-08-06T06:35:03;95349.69;;;14.52;98.41
3960;BME280;1994;48.640;8.894;2023-08-06T06:37:29;95354.06;;;14.57;99.25
3960;BME280;1994;48.640;8.894;2023-08-06T06:39:55;95354.69;;;14.49;98.57
3960;BME280;1994;48.640;8.894;2023-08-06T06:42:20;95356.75;;;14.47;99.30
3960;BME280;1994;48.640;8.894;2023-08-06T06:44:48;95361.50;;;14.45;100.00
3960;BME280;1994;48.640;8.894;2023-08-06T06:47:14;95363.16;;;14.59;100.00
3960;BME280;1994;48.640;8.894;2023-08-06T06:49:40;95353.81;;;14.30;100.00
3960;BME280;1994;48.640;8.894;2023-08-06T06:52:06;95358.84;;;14.50;100.00
3960;BME280;1994;48.640;8.894;2023-08-06T06:54:32;95358.47;;;14.33;100.00
3960;BME280;1994;48.640;8.894;2023-08-06T06:56:57;95354.72;;;14.44;100.00
3960;BME280;1994;48.640;8.894;2023-08-06T06:59:23;95359.81;;;14.54;100.00
3960;BME280;1994;48.640;8.894;2023-08-06T07:01:49;95360.16;;;14.47;100.00
3960;BME280;1994;48.640;8.894;2023-08-06T07:04:15;95353.63;;;14.50;100.00
3960;BME280;1994;48.640;8.894;2023-08-06T07:06:40;95356.31;;;14.40;100.00
3960;BME280;1994;48.640;8.894;2023-08-06T07:09:06;95352.84;;;14.49;100.00
3960;BME280;1994;48.640;8.894;2023-08-06T07:11:32;95355.84;;;14.38;100.00
3960;BME280;1994;48.640;8.894;2023-08-06T07:13:58;95354.25;;;14.37;100.00
3960;BME280;1994;48.640;8.894;2023-08-06T07:16:25;95359.38;;;14.47;100.00
3960;BME280;1994;48.640;8.894;2023-08-06T07:18:53;95359.81;;;14.54;100.00
3960;BME280;1994;48.640;8.894;2023-08-06T07:21:19;95364.63;;;14.42;100.00
3960;BME280;1994;48.640;8.894;2023-08-06T07:23:45;95375.09;;;14.37;100.00
3960;BME280;1994;48.640;8.894;2023-08-06T07:26:11;95363.25;;;14.49;100.00
3960;BME280;1994;48.640;8.894;2023-08-06T07:28:37;95375.00;;;14.47;100.00
3960;BME280;1994;48.640;8.894;2023-08-06T07:31:03;95366.44;;;14.46;100.00
3960;BME280;1994;48.640;8.894;2023-08-06T07:33:29;95367.94;;;14.52;100.00
3960;BME280;1994;48.640;8.894;2023-08-06T07:35:55;95382.28;;;14.50;100.00
3960;BME280;1994;48.640;8.894;2023-08-06T07:38:21;95380.00;;;14.43;100.00
3960;BME280;1994;48.640;8.894;2023-08-06T07:40:47;95380.22;;;14.47;100.00
3960;BME280;1994;48.640;8.894;2023-08-06T07:43:13;95384.56;;;14.56;100.00
3960;BME280;1994;48.640;8.894;2023-08-06T07:45:38;95372.81;;;14.59;100.00
3960;BME280;1994;48.640;8.894;2023-08-06T07:48:04;95375.25;;;14.74;100.00
3960;BME280;1994;48.640;8.894;2023-08-06T07:50:31;95369.44;;;14.82;100.00
3960;BME280;1994;48.640;8.894;2023-08-06T07:52:56;95376.66;;;14.90;99.44
3960;BME280;1994;48.640;8.894;2023-08-06T07:55:22;95377.59;;;14.75;98.62
3960;BME280;1994;48.640;8.894;2023-08-06T07:57:48;95378.81;;;14.83;99.59
3960;BME280;1994;48.640;8.894;2023-08-06T08:00:14;95394.13;;;14.66;99.55
3960;BME280;1994;48.640;8.894;2023-08-06T08:02:40;95378.13;;;14.72;98.88
3960;BME280;1994;48.640;8.894;2023-08-06T08:05:06;95386.19;;;14.76;100.00
3960;BME280;1994;48.640;8.894;2023-08-06T08:07:34;95389.94;;;14.65;100.00
3960;BME280;1994;48.640;8.894;2023-08-06T08:09:59;95390.94;;;14.69;100.00
3960;BME280;1994;48.640;8.894;2023-08-06T08:12:25;95395.81;;;14.52;100.00
3960;BME280;1994;48.640;8.894;2023-08-06T08:14:51;95388.47;;;14.54;100.00
3960;BME280;1994;48.640;8.894;2023-08-06T08:17:17;95384.41;;;14.43;100.00
3960;BME280;1994;48.640;8.894;2023-08-06T08:19:43;95380.66;;;14.54;100.00
3960;BME280;1994;48.640;8.894;2023-08-06T08:22:09;95390.72;;;14.65;100.00
3960;BME280;1994;48.640;8.894;2023-08-06T08:24:35;95389.44;;;14.63;100.00
3960;BME280;1994;48.640;8.894;2023-08-06T08:27:00;95387.41;;;14.60;100.00
3960;BME280;1994;48.640;8.894;2023-08-06T08:29:26;95392.09;;;14.58;100.00
3960;BME280;1994;48.640;8.894;2023-08-06T08:31:52;95387.91;;;14.62;100.00
3960;BME280;1994;48.640;8.894;2023-08-06T08:34:18;95388.34;;;14.69;100.00
3960;BME280;1994;48.640;8.894;2023-08-06T08:36:44;95386.44;;;14.51;100.00
3960;BME280;1994;48.640;8.894;2023-08-06T08:39:15;95383.78;;;14.56;100.00
3960;BME280;1994;48.640;8.894;2023-08-06T08:41:41;95392.84;;;14.63;100.00
3960;BME280;1994;48.640;8.894;2023-08-06T08:44:09;95399.78;;;14.73;100.00
3960;BME280;1994;48.640;8.894;2023-08-06T08:46:40;95393.56;;;14.69;100.00
3960;BME280;1994;48.640;8.894;2023-08-06T08:49:07;95391.91;;;14.78;100.00
3960;BME280;1994;48.640;8.894;2023-08-06T08:51:34;95390.13;;;14.73;100.00
3960;BME280;1994;48.640;8.894;2023-08-06T08:54:07;95406.41;;;14.60;100.00
3960;BME280;1994;48.640;8.894;2023-08-06T08:56:34;95396.72;;;14.66;100.00
3960;BME280;1994;48.640;8.894;2023-08-06T08:59:00;95389.25;;;14.83;100.00
3960;BME280;1994;48.640;8.894;2023-08-06T09:01:27;95389.81;;;15.03;100.00
3960;BME280;1994;48.640;8.894;2023-08-06T09:03:55;95401.03;;;15.04;100.00
3960;BME280;1994;48.640;8.894;2023-08-06T09:06:21;95391.03;;;15.11;100.00
3960;BME280;1994;48.640;8.894;2023-08-06T09:09:12;95390.19;;;15.15;100.00
3960;BME280;1994;48.640;8.894;2023-08-06T09:11:43;95398.69;;;15.26;98.77
3960;BME280;1994;48.640;8.894;2023-08-06T09:14:11;95405.91;;;15.34;98.74
3960;BME280;1994;48.640;8.894;2023-08-06T09:16:38;95403.16;;;15.44;96.63
3960;BME280;1994;48.640;8.894;2023-08-06T09:19:11;95410.50;;;15.60;97.58
3960;BME280;1994;48.640;8.894;2023-08-06T09:21:45;95406.19;;;15.51;97.13
3960;BME280;1994;48.640;8.894;2023-08-06T09:24:14;95416.69;;;15.46;96.89
3960;BME280;1994;48.640;8.894;2023-08-06T09:26:43;95408.66;;;15.19;98.16
3960;BME280;1994;48.640;8.894;2023-08-06T09:29:10;95414.81;;;15.28;98.71
3960;BME280;1994;48.640;8.894;2023-08-06T09:31:44;95410.28;;;15.15;97.16
3960;BME280;1994;48.640;8.894;2023-08-06T09:34:31;95410.09;;;15.30;97.89
3960;BME280;1994;48.640;8.894;2023-08-06T09:36:57;95409.22;;;15.16;97.38
3960;BME280;1994;48.640;8.894;2023-08-06T09:39:27;95412.44;;;15.08;97.53
3960;BME280;1994;48.640;8.894;2023-08-06T09:42:01;95412.47;;;15.03;98.02
3960;BME280;1994;48.640;8.894;2023-08-06T09:44:31;95411.47;;;15.04;98.02
3960;BME280;1994;48.640;8.894;2023-08-06T09:47:00;95410.00;;;14.93;97.44
3960;BME280;1994;48.640;8.894;2023-08-06T09:49:29;95414.66;;;14.96;97.27
3960;BME280;1994;48.640;8.894;2023-08-06T09:52:11;95412.94;;;15.10;98.56
3960;BME280;1994;48.640;8.894;2023-08-06T09:54:38;95416.53;;;15.14;98.00
3960;BME280;1994;48.640;8.894;2023-08-06T09:57:05;95418.97;;;15.05;98.17
3960;BME280;1994;48.640;8.894;2023-08-06T09:59:32;95419.66;;;15.16;99.11
3960;BME280;1994;48.640;8.894;2023-08-06T10:01:59;95426.09;;;15.00;99.88
3960;BME280;1994;48.640;8.894;2023-08-06T10:04:25;95422.44;;;15.01;99.56
3960;BME280;1994;48.640;8.894;2023-08-06T10:06:52;95426.75;;;14.87;99.41
3960;BME280;1994;48.640;8.894;2023-08-06T10:09:19;95429.09;;;15.12;100.00
3960;BME280;1994;48.640;8.894;2023-08-06T10:11:51;95431.22;;;15.10;100.00
3960;BME280;1994;48.640;8.894;2023-08-06T10:14:35;95428.41;;;15.25;100.00
3960;BME280;1994;48.640;8.894;2023-08-06T10:17:03;95442.19;;;15.54;100.00
3960;BME280;1994;48.640;8.894;2023-08-06T10:19:29;95440.88;;;15.33;99.54
3960;BME280;1994;48.640;8.894;2023-08-06T10:24:57;95438.66;;;15.45;100.00
3960;BME280;1994;48.640;8.894;2023-08-06T10:30:30;95448.19;;;15.31;100.00
3960;BME280;1994;48.640;8.894;2023-08-06T10:33:04;95454.13;;;15.60;100.00
3960;BME280;1994;48.640;8.894;2023-08-06T10:35:48;95455.63;;;15.66;100.00
3960;BME280;1994;48.640;8.894;2023-08-06T10:38:22;95456.44;;;15.43;99.58
3960;BME280;1994;48.640;8.894;2023-08-06T10:43:27;95458.75;;;15.21;100.00
3960;BME280;1994;48.640;8.894;2023-08-06T10:45:54;95462.50;;;15.57;100.00
3960;BME280;1994;48.640;8.894;2023-08-06T10:48:36;95462.56;;;15.52;100.00
3960;BME280;1994;48.640;8.894;2023-08-06T10:51:03;95470.28;;;15.62;99.86
3960;BME280;1994;48.640;8.894;2023-08-06T10:53:29;95468.63;;;15.47;98.84
3960;BME280;1994;48.640;8.894;2023-08-06T10:55:55;95469.03;;;15.78;99.28
3960;BME280;1994;48.640;8.894;2023-08-06T10:58:21;95480.00;;;15.80;99.83
3960;BME280;1994;48.640;8.894;2023-08-06T11:00:47;95479.41;;;15.83;98.59
3960;BME280;1994;48.640;8.894;2023-08-06T11:03:12;95487.03;;;15.79;98.24
3960;BME280;1994;48.640;8.894;2023-08-06T11:05:49;95483.47;;;15.70;98.29
3960;BME280;1994;48.640;8.894;2023-08-06T11:08:47;95495.44;;;15.95;97.98
3960;BME280;1994;48.640;8.894;2023-08-06T11:11:15;95491.63;;;16.06;98.23
3960;BME280;1994;48.640;8.894;2023-08-06T11:13:42;95503.09;;;16.10;95.97
3960;BME280;1994;48.640;8.894;2023-08-06T11:16:10;95501.66;;;15.99;94.25
3960;BME280;1994;48.640;8.894;2023-08-06T11:18:36;95495.88;;;16.02;93.05
3960;BME280;1994;48.640;8.894;2023-08-06T11:21:02;95505.50;;;16.25;92.05
3960;BME280;1994;48.640;8.894;2023-08-06T11:23:29;95508.34;;;16.47;93.02
3960;BME280;1994;48.640;8.894;2023-08-06T11:25:59;95503.66;;;16.44;91.05
3960;BME280;1994;48.640;8.894;2023-08-06T11:28:25;95516.91;;;16.66;90.30
3960;BME280;1994;48.640;8.894;2023-08-06T11:30:51;95520.75;;;16.55;89.78
3960;BME280;1994;48.640;8.894;2023-08-06T11:33:24;95518.19;;;16.50;89.28
3960;BME280;1994;48.640;8.894;2023-08-06T11:35:58;95514.38;;;16.61;89.87
3960;BME280;1994;48.640;8.894;2023-08-06T11:38:28;95525.56;;;16.48;87.86
3960;BME280;1994;48.640;8.894;2023-08-06T11:40:55;95527.66;;;16.27;87.78
3960;BME280;1994;48.640;8.894;2023-08-06T11:43:21;95526.25;;;16.35;86.51
3960;BME280;1994;48.640;8.894;2023-08-06T11:45:50;95526.91;;;16.45;87.51
3960;BME280;1994;48.640;8.894;2023-08-06T11:48:19;95527.91;;;16.49;87.00
3960;BME280;1994;48.640;8.894;2023-08-06T11:50:46;95527.56;;;16.56;87.14
3960;BME280;1994;48.640;8.894;2023-08-06T11:53:13;95539.09;;;16.68;85.73
3960;BME280;1994;48.640;8.894;2023-08-06T11:55:40;95528.72;;;16.63;84.59
3960;BME280;1994;48.640;8.894;2023-08-06T11:58:06;95543.94;;;16.61;84.94
3960;BME280;1994;48.640;8.894;2023-08-06T12:00:32;95535.31;;;16.24;85.99
3960;BME280;1994;48.640;8.894;2023-08-06T12:02:58;95542.63;;;16.22;85.67
3960;BME280;1994;48.640;8.894;2023-08-06T12:05:31;95554.34;;;16.06;86.54
3960;BME280;1994;48.640;8.894;2023-08-06T12:08:00;95554.13;;;16.02;86.33
3960;BME280;1994;48.640;8.894;2023-08-06T12:10:28;95557.59;;;15.98;86.51
3960;BME280;1994;48.640;8.894;2023-08-06T12:12:55;95563.44;;;16.08;87.43
3960;BME280;1994;48.640;8.894;2023-08-06T12:15:21;95562.91;;;16.11;85.95
3960;BME280;1994;48.640;8.894;2023-08-06T12:17:47;95556.00;;;16.20;85.83
3960;BME280;1994;48.640;8.894;2023-08-06T12:20:13;95572.63;;;16.48;85.79
3960;BME280;1994;48.640;8.894;2023-08-06T12:22:39;95566.06;;;16.08;84.72
3960;BME280;1994;48.640;8.894;2023-08-06T12:25:12;95572.50;;;16.16;85.31
3960;BME280;1994;48.640;8.894;2023-08-06T12:27:40;95568.75;;;16.22;85.65
3960;BME280;1994;48.640;8.894;2023-08-06T12:30:07;95577.88;;;16.24;85.70
3960;BME280;1994;48.640;8.894;2023-08-06T12:32:34;95569.22;;;16.29;84.73
3960;BME280;1994;48.640;8.894;2023-08-06T12:35:00;95575.97;;;16.30;85.67
3960;BME280;1994;48.640;8.894;2023-08-06T12:37:30;95578.53;;;16.35;84.59
3960;BME280;1994;48.640;8.894;2023-08-06T12:39:56;95585.75;;;16.43;84.58
3960;BME280;1994;48.640;8.894;2023-08-06T12:42:22;95585.50;;;16.63;83.42
3960;BME280;1994;48.640;8.894;2023-08-06T12:44:51;95584.00;;;16.57;82.36
3960;BME280;1994;48.640;8.894;2023-08-06T12:47:18;95590.19;;;16.61;81.56
3960;BME280;1994;48.640;8.894;2023-08-06T12:49:44;95601.72;;;16.60;83.20
3960;BME280;1994;48.640;8.894;2023-08-06T12:52:10;95583.06;;;16.48;80.77
3960;BME280;1994;48.640;8.894;2023-08-06T12:54:38;95588.44;;;16.75;81.63
3960;BME280;1994;48.640;8.894;2023-08-06T12:57:04;95588.28;;;16.85;80.50
3960;BME280;1994;48.640;8.894;2023-08-06T12:59:30;95582.00;;;17.18;79.52
3960;BME280;1994;48.640;8.894;2023-08-06T13:01:56;95588.22;;;17.81;79.43
3960;BME280;1994;48.640;8.894;2023-08-06T13:04:22;95583.22;;;18.60;74.18
3960;BME280;1994;48.640;8.894;2023-08-06T13:06:48;95586.84;;;19.17;72.01
3960;BME280;1994;48.640;8.894;2023-08-06T13:09:13;95594.53;;;19.27;70.16
3960;BME280;1994;48.640;8.894;2023-08-06T13:11:40;95586.22;;;18.89;70.69
3960;BME280;1994;48.640;8.894;2023-08-06T13:14:11;95583.91;;;19.32;69.11
3960;BME280;1994;48.640;8.894;2023-08-06T13:16:41;95596.22;;;19.23;67.05
3960;BME280;1994;48.640;8.894;2023-08-06T13:19:09;95589.13;;;18.88;69.07
3960;BME280;1994;48.640;8.894;2023-08-06T13:24:06;95606.00;;;17.84;71.25
3960;BME280;1994;48.640;8.894;2023-08-06T13:26:32;95614.53;;;17.76;71.72
3960;BME280;1994;48.640;8.894;2023-08-06T13:28:59;95613.84;;;17.84;72.32
3960;BME280;1994;48.640;8.894;2023-08-06T13:31:26;95612.69;;;17.90;71.75
3960;BME280;1994;48.640;8.894;2023-08-06T13:33:54;95621.03;;;17.78;72.21